sensor_id;sensor_type;location;lat;lon;timestamp;P1;durP1;ratioP1;P2;durP2;ratioP2
46551;SDS011;32278;51.810;4.712;2023-05-07T00:00:21;49.13;;;29.88;;
46551;SDS011;32278;51.810;4.712;2023-05-07T00:02:47;47.13;;;29.92;;
46551;SDS011;32278;51.810;4.712;2023-05-07T00:05:13;48.83;;;31.95;;
46551;SDS011;32278;51.810;4.712;2023-05-07T00:07:39;41.78;;;27.98;;
46551;SDS011;32278;51.810;4.712;2023-05-07T00:10:05;48.58;;;30.80;;
46551;SDS011;32278;51.810;4.712;2023-05-07T00:12:33;42.65;;;29.63;;
46551;SDS011;32278;51.810;4.712;2023-05-07T00:14:59;52.33;;;32.05;;
46551;SDS011;32278;51.810;4.712;2023-05-07T00:17:25;46.03;;;30.20;;
46551;SDS011;32278;51.810;4.712;2023-05-07T00:19:52;51.90;;;32.85;;
46551;SDS011;32278;51.810;4.712;2023-05-07T00:22:18;50.33;;;30.63;;
46551;SDS011;32278;51.810;4.712;2023-05-07T00:24:44;60.25;;;34.50;;
46551;SDS011;32278;51.810;4.712;2023-05-07T00:27:10;51.05;;;32.95;;
46551;SDS011;32278;51.810;4.712;2023-05-07T00:29:36;50.97;;;32.33;;
46551;SDS011;32278;51.810;4.712;2023-05-07T00:32:02;56.10;;;33.13;;
46551;SDS011;32278;51.810;4.712;2023-05-07T00:34:28;50.92;;;32.92;;
46551;SDS011;32278;51.810;4.712;2023-05-07T00:36:54;48.40;;;33.95;;
46551;SDS011;32278;51.810;4.712;2023-05-07T00:39:20;60.63;;;33.53;;
46551;SDS011;32278;51.810;4.712;2023-05-07T00:41:46;51.17;;;32.90;;
46551;SDS011;32278;51.810;4.712;2023-05-07T00:44:13;47.30;;;30.08;;
46551;SDS011;32278;51.810;4.712;2023-05-07T00:46:39;50.38;;;32.60;;
46551;SDS011;32278;51.810;4.712;2023-05-07T00:49:05;51.55;;;31.58;;
46551;SDS011;32278;51.810;4.712;2023-05-07T00:51:32;40.35;;;28.98;;
46551;SDS011;32278;51.810;4.712;2023-05-07T00:53:59;48.13;;;30.27;;
46551;SDS011;32278;51.810;4.712;2023-05-07T00:56:26;45.85;;;29.85;;
46551;SDS011;32278;51.810;4.712;2023-05-07T00:58:52;43.30;;;27.63;;
46551;SDS011;32278;51.810;4.712;2023-05-07T01:01:18;41.97;;;25.90;;
46551;SDS011;32278;51.810;4.712;2023-05-07T01:03:44;40.13;;;27.30;;
46551;SDS011;32278;51.810;4.712;2023-05-07T01:06:10;38.17;;;26.23;;
46551;SDS011;32278;51.810;4.712;2023-05-07T01:08:38;36.30;;;24.02;;
46551;SDS011;32278;51.810;4.712;2023-05-07T01:11:05;33.05;;;22.58;;
46551;SDS011;32278;51.810;4.712;2023-05-07T01:13:31;35.97;;;23.30;;
46551;SDS011;32278;51.810;4.712;2023-05-07T01:15:57;34.17;;;23.15;;
46551;SDS011;32278;51.810;4.712;2023-05-07T01:18:23;36.42;;;22.48;;
46551;SDS011;32278;51.810;4.712;2023-05-07T01:20:51;33.88;;;23.40;;
46551;SDS011;32278;51.810;4.712;2023-05-07T01:23:17;37.58;;;23.85;;
46551;SDS011;32278;51.810;4.712;2023-05-07T01:25:50;34.42;;;23.83;;
46551;SDS011;32278;51.810;4.712;2023-05-07T01:28:16;32.53;;;22.50;;
46551;SDS011;32278;51.810;4.712;2023-05-07T01:30:42;23.98;;;19.50;;
46551;SDS011;32278;51.810;4.712;2023-05-07T01:33:11;29.65;;;20.52;;
46551;SDS011;32278;51.810;4.712;2023-05-07T01:35:40;30.33;;;20.15;;
46551;SDS011;32278;51.810;4.712;2023-05-07T01:38:07;30.80;;;21.15;;
46551;SDS011;32278;51.810;4.712;2023-05-07T01:40:33;29.13;;;21.17;;
46551;SDS011;32278;51.810;4.712;2023-05-07T01:43:00;26.80;;;19.25;;
46551;SDS011;32278;51.810;4.712;2023-05-07T01:45:27;32.15;;;21.60;;
46551;SDS011;32278;51.810;4.712;2023-05-07T01:47:53;33.45;;;20.88;;
46551;SDS011;32278;51.810;4.712;2023-05-07T01:50:20;28.40;;;21.75;;
46551;SDS011;32278;51.810;4.712;2023-05-07T01:52:47;30.75;;;22.13;;
46551;SDS011;32278;51.810;4.712;2023-05-07T01:55:13;28.70;;;20.80;;
46551;SDS011;32278;51.810;4.712;2023-05-07T01:57:39;25.15;;;20.35;;
46551;SDS011;32278;51.810;4.712;2023-05-07T02:00:05;26.88;;;20.35;;
46551;SDS011;32278;51.810;4.712;2023-05-07T02:02:31;25.55;;;20.63;;
46551;SDS011;32278;51.810;4.712;2023-05-07T02:04:58;27.25;;;20.75;;
46551;SDS011;32278;51.810;4.712;2023-05-07T02:07:24;26.88;;;19.17;;
46551;SDS011;32278;51.810;4.712;2023-05-07T02:09:50;26.50;;;18.65;;
46551;SDS011;32278;51.810;4.712;2023-05-07T02:12:15;25.70;;;18.50;;
46551;SDS011;32278;51.810;4.712;2023-05-07T02:14:41;22.23;;;17.65;;
46551;SDS011;32278;51.810;4.712;2023-05-07T02:17:07;22.10;;;17.52;;
46551;SDS011;32278;51.810;4.712;2023-05-07T02:19:33;28.10;;;18.35;;
46551;SDS011;32278;51.810;4.712;2023-05-07T02:22:00;24.05;;;16.98;;
46551;SDS011;32278;51.810;4.712;2023-05-07T02:24:26;21.00;;;16.60;;
46551;SDS011;32278;51.810;4.712;2023-05-07T02:26:52;20.85;;;16.25;;
46551;SDS011;32278;51.810;4.712;2023-05-07T02:29:18;19.05;;;15.25;;
46551;SDS011;32278;51.810;4.712;2023-05-07T02:31:43;21.38;;;16.75;;
46551;SDS011;32278;51.810;4.712;2023-05-07T02:34:09;17.50;;;15.32;;
46551;SDS011;32278;51.810;4.712;2023-05-07T02:36:35;22.42;;;15.93;;
46551;SDS011;32278;51.810;4.712;2023-05-07T02:39:02;23.65;;;15.63;;
46551;SDS011;32278;51.810;4.712;2023-05-07T02:41:28;24.58;;;15.65;;
46551;SDS011;32278;51.810;4.712;2023-05-07T02:43:54;25.38;;;16.88;;
46551;SDS011;32278;51.810;4.712;2023-05-07T02:46:20;21.98;;;15.65;;
46551;SDS011;32278;51.810;4.712;2023-05-07T02:48:46;21.92;;;15.23;;
46551;SDS011;32278;51.810;4.712;2023-05-07T02:51:12;22.33;;;14.93;;
46551;SDS011;32278;51.810;4.712;2023-05-07T02:53:38;20.77;;;15.02;;
46551;SDS011;32278;51.810;4.712;2023-05-07T02:56:04;22.67;;;15.27;;
46551;SDS011;32278;51.810;4.712;2023-05-07T02:58:31;20.95;;;14.70;;
46551;SDS011;32278;51.810;4.712;2023-05-07T03:00:58;19.95;;;14.35;;
46551;SDS011;32278;51.810;4.712;2023-05-07T03:03:24;20.77;;;14.80;;
46551;SDS011;32278;51.810;4.712;2023-05-07T03:05:50;20.20;;;14.13;;
46551;SDS011;32278;51.810;4.712;2023-05-07T03:08:16;20.98;;;14.05;;
46551;SDS011;32278;51.810;4.712;2023-05-07T03:10:42;20.83;;;14.07;;
46551;SDS011;32278;51.810;4.712;2023-05-07T03:13:09;24.33;;;15.93;;
46551;SDS011;32278;51.810;4.712;2023-05-07T03:15:35;19.60;;;15.23;;
46551;SDS011;32278;51.810;4.712;2023-05-07T03:18:01;20.92;;;15.68;;
46551;SDS011;32278;51.810;4.712;2023-05-07T03:20:27;19.95;;;15.05;;
46551;SDS011;32278;51.810;4.712;2023-05-07T03:22:53;21.85;;;15.82;;
46551;SDS011;32278;51.810;4.712;2023-05-07T03:25:19;24.25;;;14.75;;
46551;SDS011;32278;51.810;4.712;2023-05-07T03:27:45;23.27;;;15.35;;
46551;SDS011;32278;51.810;4.712;2023-05-07T03:30:11;20.95;;;14.45;;
46551;SDS011;32278;51.810;4.712;2023-05-07T03:32:37;22.75;;;15.85;;
46551;SDS011;32278;51.810;4.712;2023-05-07T03:35:03;24.95;;;15.43;;
46551;SDS011;32278;51.810;4.712;2023-05-07T03:37:29;24.45;;;15.73;;
46551;SDS011;32278;51.810;4.712;2023-05-07T03:39:56;19.55;;;14.00;;
46551;SDS011;32278;51.810;4.712;2023-05-07T03:42:22;24.08;;;15.13;;
46551;SDS011;32278;51.810;4.712;2023-05-07T03:44:48;24.33;;;15.15;;
46551;SDS011;32278;51.810;4.712;2023-05-07T03:47:14;23.95;;;15.27;;
46551;SDS011;32278;51.810;4.712;2023-05-07T03:49:40;26.63;;;15.05;;
46551;SDS011;32278;51.810;4.712;2023-05-07T03:52:06;19.30;;;14.35;;
46551;SDS011;32278;51.810;4.712;2023-05-07T03:54:32;24.50;;;14.55;;
46551;SDS011;32278;51.810;4.712;2023-05-07T03:56:59;21.80;;;14.27;;
46551;SDS011;32278;51.810;4.712;2023-05-07T03:59:25;26.15;;;14.65;;
46551;SDS011;32278;51.810;4.712;2023-05-07T04:01:51;22.27;;;15.13;;
46551;SDS011;32278;51.810;4.712;2023-05-07T04:04:17;20.92;;;13.93;;
46551;SDS011;32278;51.810;4.712;2023-05-07T04:06:43;17.60;;;14.07;;
46551;SDS011;32278;51.810;4.712;2023-05-07T04:09:09;20.40;;;13.95;;
46551;SDS011;32278;51.810;4.712;2023-05-07T04:11:35;22.15;;;15.02;;
46551;SDS011;32278;51.810;4.712;2023-05-07T04:14:01;22.58;;;14.95;;
46551;SDS011;32278;51.810;4.712;2023-05-07T04:16:27;22.88;;;14.85;;
46551;SDS011;32278;51.810;4.712;2023-05-07T04:18:53;23.10;;;14.98;;
46551;SDS011;32278;51.810;4.712;2023-05-07T04:21:20;24.85;;;15.68;;
46551;SDS011;32278;51.810;4.712;2023-05-07T04:23:46;20.58;;;14.68;;
46551;SDS011;32278;51.810;4.712;2023-05-07T04:26:12;25.23;;;16.25;;
46551;SDS011;32278;51.810;4.712;2023-05-07T04:28:39;24.10;;;15.75;;
46551;SDS011;32278;51.810;4.712;2023-05-07T04:31:05;21.15;;;14.30;;
46551;SDS011;32278;51.810;4.712;2023-05-07T04:33:31;22.10;;;15.57;;
46551;SDS011;32278;51.810;4.712;2023-05-07T04:35:58;19.25;;;14.23;;
46551;SDS011;32278;51.810;4.712;2023-05-07T04:38:28;21.63;;;14.80;;
46551;SDS011;32278;51.810;4.712;2023-05-07T04:40:56;21.60;;;14.77;;
46551;SDS011;32278;51.810;4.712;2023-05-07T04:43:22;22.20;;;15.80;;
46551;SDS011;32278;51.810;4.712;2023-05-07T04:45:49;19.10;;;14.90;;
46551;SDS011;32278;51.810;4.712;2023-05-07T04:48:15;24.40;;;16.08;;
46551;SDS011;32278;51.810;4.712;2023-05-07T04:50:44;19.02;;;14.13;;
46551;SDS011;32278;51.810;4.712;2023-05-07T04:53:10;25.73;;;15.60;;
46551;SDS011;32278;51.810;4.712;2023-05-07T04:55:36;24.63;;;16.73;;
46551;SDS011;32278;51.810;4.712;2023-05-07T04:58:02;22.88;;;15.90;;
46551;SDS011;32278;51.810;4.712;2023-05-07T05:00:28;22.40;;;15.50;;
46551;SDS011;32278;51.810;4.712;2023-05-07T05:02:55;22.90;;;15.25;;
46551;SDS011;32278;51.810;4.712;2023-05-07T05:05:21;27.15;;;16.33;;
46551;SDS011;32278;51.810;4.712;2023-05-07T05:07:47;22.45;;;15.50;;
46551;SDS011;32278;51.810;4.712;2023-05-07T05:10:13;25.00;;;16.83;;
46551;SDS011;32278;51.810;4.712;2023-05-07T05:12:39;24.55;;;16.33;;
46551;SDS011;32278;51.810;4.712;2023-05-07T05:15:05;30.88;;;17.98;;
46551;SDS011;32278;51.810;4.712;2023-05-07T05:17:31;29.45;;;18.80;;
46551;SDS011;32278;51.810;4.712;2023-05-07T05:19:59;27.50;;;18.42;;
46551;SDS011;32278;51.810;4.712;2023-05-07T05:22:25;28.88;;;18.05;;
46551;SDS011;32278;51.810;4.712;2023-05-07T05:24:54;24.23;;;17.38;;
46551;SDS011;32278;51.810;4.712;2023-05-07T05:27:20;27.83;;;18.00;;
46551;SDS011;32278;51.810;4.712;2023-05-07T05:29:46;28.63;;;17.80;;
46551;SDS011;32278;51.810;4.712;2023-05-07T05:32:12;25.67;;;18.25;;
46551;SDS011;32278;51.810;4.712;2023-05-07T05:34:38;30.10;;;18.73;;
46551;SDS011;32278;51.810;4.712;2023-05-07T05:37:04;26.50;;;19.65;;
46551;SDS011;32278;51.810;4.712;2023-05-07T05:39:30;28.48;;;18.08;;
46551;SDS011;32278;51.810;4.712;2023-05-07T05:41:56;27.50;;;18.25;;
46551;SDS011;32278;51.810;4.712;2023-05-07T05:44:22;27.40;;;19.33;;
46551;SDS011;32278;51.810;4.712;2023-05-07T05:46:48;29.40;;;19.77;;
46551;SDS011;32278;51.810;4.712;2023-05-07T05:49:14;29.25;;;18.50;;
46551;SDS011;32278;51.810;4.712;2023-05-07T05:51:41;32.25;;;19.52;;
46551;SDS011;32278;51.810;4.712;2023-05-07T05:54:07;25.98;;;18.63;;
46551;SDS011;32278;51.810;4.712;2023-05-07T05:56:32;29.00;;;18.17;;
46551;SDS011;32278;51.810;4.712;2023-05-07T05:58:58;31.70;;;19.45;;
46551;SDS011;32278;51.810;4.712;2023-05-07T06:01:25;30.02;;;19.63;;
46551;SDS011;32278;51.810;4.712;2023-05-07T06:03:51;34.47;;;19.58;;
46551;SDS011;32278;51.810;4.712;2023-05-07T06:06:17;31.45;;;20.33;;
46551;SDS011;32278;51.810;4.712;2023-05-07T06:08:43;31.55;;;21.67;;
46551;SDS011;32278;51.810;4.712;2023-05-07T06:11:09;34.50;;;21.33;;
46551;SDS011;32278;51.810;4.712;2023-05-07T06:13:35;36.58;;;22.80;;
46551;SDS011;32278;51.810;4.712;2023-05-07T06:16:01;36.25;;;24.42;;
46551;SDS011;32278;51.810;4.712;2023-05-07T06:18:27;34.88;;;23.48;;
46551;SDS011;32278;51.810;4.712;2023-05-07T06:20:53;38.60;;;24.67;;
46551;SDS011;32278;51.810;4.712;2023-05-07T06:23:19;44.70;;;27.20;;
46551;SDS011;32278;51.810;4.712;2023-05-07T06:25:48;45.10;;;27.27;;
46551;SDS011;32278;51.810;4.712;2023-05-07T06:28:15;42.15;;;28.00;;
46551;SDS011;32278;51.810;4.712;2023-05-07T06:30:41;42.30;;;28.38;;
46551;SDS011;32278;51.810;4.712;2023-05-07T06:33:07;49.08;;;29.10;;
46551;SDS011;32278;51.810;4.712;2023-05-07T06:35:33;46.50;;;29.13;;
46551;SDS011;32278;51.810;4.712;2023-05-07T06:37:59;54.42;;;30.90;;
46551;SDS011;32278;51.810;4.712;2023-05-07T06:40:25;49.58;;;32.72;;
46551;SDS011;32278;51.810;4.712;2023-05-07T06:42:51;45.60;;;29.30;;
46551;SDS011;32278;51.810;4.712;2023-05-07T06:45:17;44.08;;;28.67;;
46551;SDS011;32278;51.810;4.712;2023-05-07T06:47:43;47.55;;;30.70;;
46551;SDS011;32278;51.810;4.712;2023-05-07T06:50:09;49.75;;;33.20;;
46551;SDS011;32278;51.810;4.712;2023-05-07T06:52:35;45.40;;;29.55;;
46551;SDS011;32278;51.810;4.712;2023-05-07T06:55:01;50.92;;;32.85;;
46551;SDS011;32278;51.810;4.712;2023-05-07T06:57:27;55.30;;;32.10;;
46551;SDS011;32278;51.810;4.712;2023-05-07T06:59:53;45.80;;;30.92;;
46551;SDS011;32278;51.810;4.712;2023-05-07T07:02:19;47.65;;;30.40;;
46551;SDS011;32278;51.810;4.712;2023-05-07T07:04:45;45.10;;;29.60;;
46551;SDS011;32278;51.810;4.712;2023-05-07T07:07:11;46.45;;;30.63;;
46551;SDS011;32278;51.810;4.712;2023-05-07T07:09:37;43.90;;;29.98;;
46551;SDS011;32278;51.810;4.712;2023-05-07T07:12:03;44.75;;;27.80;;
46551;SDS011;32278;51.810;4.712;2023-05-07T07:14:29;42.33;;;28.42;;
46551;SDS011;32278;51.810;4.712;2023-05-07T07:16:55;42.72;;;27.52;;
46551;SDS011;32278;51.810;4.712;2023-05-07T07:19:21;42.40;;;29.38;;
46551;SDS011;32278;51.810;4.712;2023-05-07T07:21:47;49.75;;;30.52;;
46551;SDS011;32278;51.810;4.712;2023-05-07T07:24:13;44.33;;;29.33;;
46551;SDS011;32278;51.810;4.712;2023-05-07T07:26:44;41.78;;;29.35;;
46551;SDS011;32278;51.810;4.712;2023-05-07T07:29:09;45.47;;;30.50;;
46551;SDS011;32278;51.810;4.712;2023-05-07T07:31:35;48.13;;;29.40;;
46551;SDS011;32278;51.810;4.712;2023-05-07T07:34:02;48.38;;;31.15;;
46551;SDS011;32278;51.810;4.712;2023-05-07T07:36:28;43.45;;;30.15;;
46551;SDS011;32278;51.810;4.712;2023-05-07T07:38:55;43.08;;;28.92;;
46551;SDS011;32278;51.810;4.712;2023-05-07T07:41:21;46.13;;;31.00;;
46551;SDS011;32278;51.810;4.712;2023-05-07T07:43:46;43.50;;;30.33;;
46551;SDS011;32278;51.810;4.712;2023-05-07T07:46:12;54.40;;;31.73;;
46551;SDS011;32278;51.810;4.712;2023-05-07T07:48:38;46.20;;;31.17;;
46551;SDS011;32278;51.810;4.712;2023-05-07T07:51:04;43.08;;;31.10;;
46551;SDS011;32278;51.810;4.712;2023-05-07T07:53:30;48.33;;;31.45;;
46551;SDS011;32278;51.810;4.712;2023-05-07T07:55:56;44.63;;;30.65;;
46551;SDS011;32278;51.810;4.712;2023-05-07T07:58:22;43.65;;;30.77;;
46551;SDS011;32278;51.810;4.712;2023-05-07T08:00:49;44.63;;;30.23;;
46551;SDS011;32278;51.810;4.712;2023-05-07T08:03:16;46.60;;;30.58;;
46551;SDS011;32278;51.810;4.712;2023-05-07T08:05:42;49.25;;;31.75;;
46551;SDS011;32278;51.810;4.712;2023-05-07T08:08:08;42.95;;;29.92;;
46551;SDS011;32278;51.810;4.712;2023-05-07T08:10:34;41.97;;;29.90;;
46551;SDS011;32278;51.810;4.712;2023-05-07T08:13:03;40.10;;;29.45;;
46551;SDS011;32278;51.810;4.712;2023-05-07T08:15:29;41.58;;;28.42;;
46551;SDS011;32278;51.810;4.712;2023-05-07T08:17:55;42.30;;;28.55;;
46551;SDS011;32278;51.810;4.712;2023-05-07T08:20:25;42.17;;;29.23;;
46551;SDS011;32278;51.810;4.712;2023-05-07T08:22:51;34.75;;;26.40;;
46551;SDS011;32278;51.810;4.712;2023-05-07T08:25:17;35.95;;;26.63;;
46551;SDS011;32278;51.810;4.712;2023-05-07T08:27:43;45.25;;;27.67;;
46551;SDS011;32278;51.810;4.712;2023-05-07T08:30:10;39.63;;;28.17;;
46551;SDS011;32278;51.810;4.712;2023-05-07T08:32:36;40.05;;;25.92;;
46551;SDS011;32278;51.810;4.712;2023-05-07T08:35:02;35.70;;;25.42;;
46551;SDS011;32278;51.810;4.712;2023-05-07T08:37:28;35.80;;;25.40;;
46551;SDS011;32278;51.810;4.712;2023-05-07T08:39:54;36.88;;;25.23;;
46551;SDS011;32278;51.810;4.712;2023-05-07T08:42:20;36.92;;;24.45;;
46551;SDS011;32278;51.810;4.712;2023-05-07T08:44:46;35.88;;;24.23;;
46551;SDS011;32278;51.810;4.712;2023-05-07T08:47:13;35.70;;;23.45;;
46551;SDS011;32278;51.810;4.712;2023-05-07T08:49:39;29.27;;;21.67;;
46551;SDS011;32278;51.810;4.712;2023-05-07T08:52:05;27.52;;;21.00;;
46551;SDS011;32278;51.810;4.712;2023-05-07T08:54:31;24.73;;;18.27;;
46551;SDS011;32278;51.810;4.712;2023-05-07T08:56:57;26.83;;;18.85;;
46551;SDS011;32278;51.810;4.712;2023-05-07T08:59:24;22.17;;;18.35;;
46551;SDS011;32278;51.810;4.712;2023-05-07T09:01:50;24.60;;;18.35;;
46551;SDS011;32278;51.810;4.712;2023-05-07T09:04:16;23.17;;;17.27;;
46551;SDS011;32278;51.810;4.712;2023-05-07T09:06:42;23.70;;;17.70;;
46551;SDS011;32278;51.810;4.712;2023-05-07T09:09:08;21.33;;;16.10;;
46551;SDS011;32278;51.810;4.712;2023-05-07T09:11:34;19.45;;;15.32;;
46551;SDS011;32278;51.810;4.712;2023-05-07T09:14:00;23.63;;;15.80;;
46551;SDS011;32278;51.810;4.712;2023-05-07T09:16:28;20.40;;;14.50;;
46551;SDS011;32278;51.810;4.712;2023-05-07T09:18:56;19.38;;;14.07;;
46551;SDS011;32278;51.810;4.712;2023-05-07T09:21:22;16.13;;;12.05;;
46551;SDS011;32278;51.810;4.712;2023-05-07T09:23:52;18.58;;;13.00;;
46551;SDS011;32278;51.810;4.712;2023-05-07T09:26:18;14.95;;;12.75;;
46551;SDS011;32278;51.810;4.712;2023-05-07T09:28:46;17.48;;;12.73;;
46551;SDS011;32278;51.810;4.712;2023-05-07T09:31:12;16.95;;;13.10;;
46551;SDS011;32278;51.810;4.712;2023-05-07T09:33:38;17.65;;;13.75;;
46551;SDS011;32278;51.810;4.712;2023-05-07T09:36:05;18.83;;;13.73;;
46551;SDS011;32278;51.810;4.712;2023-05-07T09:38:35;16.67;;;12.23;;
46551;SDS011;32278;51.810;4.712;2023-05-07T09:41:02;18.08;;;13.10;;
46551;SDS011;32278;51.810;4.712;2023-05-07T09:43:31;16.20;;;13.13;;
46551;SDS011;32278;51.810;4.712;2023-05-07T09:45:58;15.93;;;11.93;;
46551;SDS011;32278;51.810;4.712;2023-05-07T09:48:26;17.20;;;13.32;;
46551;SDS011;32278;51.810;4.712;2023-05-07T09:50:53;16.70;;;13.23;;
46551;SDS011;32278;51.810;4.712;2023-05-07T09:53:23;15.15;;;12.02;;
46551;SDS011;32278;51.810;4.712;2023-05-07T09:55:50;18.52;;;13.07;;
46551;SDS011;32278;51.810;4.712;2023-05-07T09:58:16;18.48;;;13.38;;
46551;SDS011;32278;51.810;4.712;2023-05-07T10:00:44;17.10;;;11.60;;
46551;SDS011;32278;51.810;4.712;2023-05-07T10:03:11;15.65;;;11.02;;
46551;SDS011;32278;51.810;4.712;2023-05-07T10:05:37;15.25;;;11.32;;
46551;SDS011;32278;51.810;4.712;2023-05-07T10:08:04;15.73;;;11.55;;
46551;SDS011;32278;51.810;4.712;2023-05-07T10:10:30;16.48;;;11.63;;
46551;SDS011;32278;51.810;4.712;2023-05-07T10:12:56;14.60;;;11.18;;
46551;SDS011;32278;51.810;4.712;2023-05-07T10:15:22;12.25;;;10.93;;
46551;SDS011;32278;51.810;4.712;2023-05-07T10:17:49;16.65;;;13.20;;
46551;SDS011;32278;51.810;4.712;2023-05-07T10:20:16;15.57;;;12.75;;
46551;SDS011;32278;51.810;4.712;2023-05-07T10:22:43;17.35;;;11.00;;
46551;SDS011;32278;51.810;4.712;2023-05-07T10:25:13;12.15;;;9.95;;
46551;SDS011;32278;51.810;4.712;2023-05-07T10:27:40;12.07;;;8.75;;
46551;SDS011;32278;51.810;4.712;2023-05-07T10:30:23;16.65;;;10.38;;
46551;SDS011;32278;51.810;4.712;2023-05-07T10:32:53;15.27;;;10.80;;
46551;SDS011;32278;51.810;4.712;2023-05-07T10:35:22;16.45;;;9.68;;
46551;SDS011;32278;51.810;4.712;2023-05-07T10:37:48;14.65;;;10.80;;
46551;SDS011;32278;51.810;4.712;2023-05-07T10:40:14;17.13;;;10.30;;
46551;SDS011;32278;51.810;4.712;2023-05-07T10:42:59;15.07;;;11.60;;
46551;SDS011;32278;51.810;4.712;2023-05-07T10:45:25;13.88;;;9.20;;
46551;SDS011;32278;51.810;4.712;2023-05-07T10:50:37;15.25;;;10.00;;
46551;SDS011;32278;51.810;4.712;2023-05-07T10:55:51;12.50;;;8.47;;
46551;SDS011;32278;51.810;4.712;2023-05-07T10:58:29;14.85;;;9.82;;
46551;SDS011;32278;51.810;4.712;2023-05-07T11:01:02;14.00;;;10.20;;
46551;SDS011;32278;51.810;4.712;2023-05-07T11:03:29;12.65;;;9.23;;
46551;SDS011;32278;51.810;4.712;2023-05-07T11:06:11;12.77;;;9.30;;
46551;SDS011;32278;51.810;4.712;2023-05-07T11:11:19;12.67;;;8.87;;
46551;SDS011;32278;51.810;4.712;2023-05-07T11:16:24;16.02;;;8.20;;
46551;SDS011;32278;51.810;4.712;2023-05-07T11:18:53;11.63;;;7.85;;
46551;SDS011;32278;51.810;4.712;2023-05-07T11:21:32;12.98;;;7.97;;
46551;SDS011;32278;51.810;4.712;2023-05-07T11:23:59;15.15;;;9.50;;
46551;SDS011;32278;51.810;4.712;2023-05-07T11:26:25;12.43;;;8.20;;
46551;SDS011;32278;51.810;4.712;2023-05-07T11:28:51;14.05;;;7.35;;
46551;SDS011;32278;51.810;4.712;2023-05-07T11:31:22;11.00;;;7.95;;
46551;SDS011;32278;51.810;4.712;2023-05-07T11:33:48;14.27;;;7.28;;
46551;SDS011;32278;51.810;4.712;2023-05-07T11:36:14;11.82;;;7.00;;
46551;SDS011;32278;51.810;4.712;2023-05-07T11:38:40;11.05;;;6.78;;
46551;SDS011;32278;51.810;4.712;2023-05-07T11:41:07;10.95;;;7.43;;
46551;SDS011;32278;51.810;4.712;2023-05-07T11:43:33;7.43;;;5.88;;
46551;SDS011;32278;51.810;4.712;2023-05-07T11:46:10;8.95;;;6.82;;
46551;SDS011;32278;51.810;4.712;2023-05-07T11:48:36;9.07;;;6.82;;
46551;SDS011;32278;51.810;4.712;2023-05-07T11:51:03;8.68;;;6.63;;
46551;SDS011;32278;51.810;4.712;2023-05-07T11:54:03;15.65;;;8.82;;
46551;SDS011;32278;51.810;4.712;2023-05-07T11:56:21;13.13;;;8.25;;
46551;SDS011;32278;51.810;4.712;2023-05-07T11:58:48;14.82;;;8.57;;
46551;SDS011;32278;51.810;4.712;2023-05-07T12:01:14;10.43;;;8.52;;
46551;SDS011;32278;51.810;4.712;2023-05-07T12:03:41;10.95;;;6.32;;
46551;SDS011;32278;51.810;4.712;2023-05-07T12:06:08;17.95;;;8.43;;
46551;SDS011;32278;51.810;4.712;2023-05-07T12:08:38;12.32;;;8.40;;
46551;SDS011;32278;51.810;4.712;2023-05-07T12:11:07;13.02;;;7.82;;
46551;SDS011;32278;51.810;4.712;2023-05-07T12:13:33;17.35;;;7.05;;
46551;SDS011;32278;51.810;4.712;2023-05-07T12:15:59;9.90;;;6.45;;
46551;SDS011;32278;51.810;4.712;2023-05-07T12:18:28;10.73;;;6.30;;
46551;SDS011;32278;51.810;4.712;2023-05-07T12:20:54;10.27;;;6.13;;
46551;SDS011;32278;51.810;4.712;2023-05-07T12:23:21;11.40;;;7.55;;
46551;SDS011;32278;51.810;4.712;2023-05-07T12:25:48;11.48;;;6.88;;
46551;SDS011;32278;51.810;4.712;2023-05-07T12:28:14;14.20;;;7.97;;
46551;SDS011;32278;51.810;4.712;2023-05-07T12:30:41;13.68;;;7.07;;
46551;SDS011;32278;51.810;4.712;2023-05-07T12:33:08;13.63;;;9.65;;
46551;SDS011;32278;51.810;4.712;2023-05-07T12:35:38;19.73;;;9.80;;
46551;SDS011;32278;51.810;4.712;2023-05-07T12:38:07;17.20;;;9.90;;
46551;SDS011;32278;51.810;4.712;2023-05-07T12:40:40;22.90;;;13.13;;
46551;SDS011;32278;51.810;4.712;2023-05-07T12:43:06;27.20;;;16.00;;
46551;SDS011;32278;51.810;4.712;2023-05-07T12:45:41;25.27;;;17.40;;
46551;SDS011;32278;51.810;4.712;2023-05-07T12:48:07;33.72;;;17.50;;
46551;SDS011;32278;51.810;4.712;2023-05-07T12:50:35;22.77;;;15.23;;
46551;SDS011;32278;51.810;4.712;2023-05-07T12:53:02;26.17;;;16.52;;
46551;SDS011;32278;51.810;4.712;2023-05-07T12:55:30;25.27;;;15.77;;
46551;SDS011;32278;51.810;4.712;2023-05-07T12:57:56;25.05;;;15.40;;
46551;SDS011;32278;51.810;4.712;2023-05-07T13:00:38;22.63;;;14.82;;
46551;SDS011;32278;51.810;4.712;2023-05-07T13:03:04;21.57;;;14.17;;
46551;SDS011;32278;51.810;4.712;2023-05-07T13:05:31;24.38;;;15.20;;
46551;SDS011;32278;51.810;4.712;2023-05-07T13:07:57;22.85;;;13.43;;
46551;SDS011;32278;51.810;4.712;2023-05-07T13:10:23;22.80;;;13.63;;
46551;SDS011;32278;51.810;4.712;2023-05-07T13:12:50;23.75;;;15.07;;
46551;SDS011;32278;51.810;4.712;2023-05-07T13:15:16;20.42;;;13.80;;
46551;SDS011;32278;51.810;4.712;2023-05-07T13:17:42;25.58;;;14.63;;
46551;SDS011;32278;51.810;4.712;2023-05-07T13:20:11;23.90;;;13.30;;
46551;SDS011;32278;51.810;4.712;2023-05-07T13:22:37;22.15;;;12.23;;
46551;SDS011;32278;51.810;4.712;2023-05-07T13:25:04;17.55;;;12.55;;
46551;SDS011;32278;51.810;4.712;2023-05-07T13:27:30;19.52;;;14.18;;
46551;SDS011;32278;51.810;4.712;2023-05-07T13:29:56;21.33;;;14.98;;
46551;SDS011;32278;51.810;4.712;2023-05-07T13:32:22;21.35;;;15.25;;
46551;SDS011;32278;51.810;4.712;2023-05-07T13:34:48;23.80;;;14.70;;
46551;SDS011;32278;51.810;4.712;2023-05-07T13:37:14;21.52;;;13.50;;
46551;SDS011;32278;51.810;4.712;2023-05-07T13:39:40;19.88;;;14.30;;
46551;SDS011;32278;51.810;4.712;2023-05-07T13:42:06;19.83;;;14.52;;
46551;SDS011;32278;51.810;4.712;2023-05-07T13:44:32;22.73;;;15.07;;
46551;SDS011;32278;51.810;4.712;2023-05-07T13:46:58;24.95;;;16.05;;
46551;SDS011;32278;51.810;4.712;2023-05-07T13:49:25;23.85;;;16.85;;
46551;SDS011;32278;51.810;4.712;2023-05-07T13:51:51;33.17;;;17.92;;
46551;SDS011;32278;51.810;4.712;2023-05-07T13:54:17;23.80;;;17.77;;
46551;SDS011;32278;51.810;4.712;2023-05-07T13:56:43;28.65;;;20.75;;
46551;SDS011;32278;51.810;4.712;2023-05-07T13:59:09;28.85;;;18.45;;
46551;SDS011;32278;51.810;4.712;2023-05-07T14:01:35;26.17;;;19.05;;
46551;SDS011;32278;51.810;4.712;2023-05-07T14:04:01;28.63;;;20.38;;
46551;SDS011;32278;51.810;4.712;2023-05-07T14:06:27;27.33;;;18.02;;
46551;SDS011;32278;51.810;4.712;2023-05-07T14:08:53;27.38;;;18.05;;
46551;SDS011;32278;51.810;4.712;2023-05-07T14:11:19;27.25;;;20.25;;
46551;SDS011;32278;51.810;4.712;2023-05-07T14:13:45;29.77;;;21.88;;
46551;SDS011;32278;51.810;4.712;2023-05-07T14:16:11;42.08;;;27.77;;
46551;SDS011;32278;51.810;4.712;2023-05-07T14:18:37;40.95;;;28.92;;
46551;SDS011;32278;51.810;4.712;2023-05-07T14:21:04;42.42;;;27.05;;
46551;SDS011;32278;51.810;4.712;2023-05-07T14:23:34;39.72;;;26.95;;
46551;SDS011;32278;51.810;4.712;2023-05-07T14:26:00;46.03;;;28.85;;
46551;SDS011;32278;51.810;4.712;2023-05-07T14:28:26;38.83;;;27.05;;
46551;SDS011;32278;51.810;4.712;2023-05-07T14:30:52;41.40;;;27.33;;